Archival Weather

NSFA McMurdo Sound

NSFA McMurdo Sound, Antarctica (NZCM)

Report from: Friday, September 23, 2022 3:29 PM UTC
Current time: Sunday, December 4, 2022 11:36 AM UTC

Current weather
Weather history
Weather forecast

Present weatherHaze
Temperature-19.2°C (-2.6°F)
Wind chill-30.4°C (-22.6°F)
Dew point-23.4°C (-10.1°F)
Winds 13 kts (6.7 m/s, 15 mph) East (90°)
Visibility2.5 mi. (4 km)
Clouds Ceiling: Broken clouds 2,100 ft. (640 m)
Overcast 3,400 ft. (1,036 m)
Altimeter28.63 in.Hg (970 mB)
Precip. events Snow began 3:06 PM
Snow ended 3:29 PM
Relative humidity69 %
Density altitude-2,806 ft. (-855 m)
Sea-level pressure107.0 kPa (1070 mB, 31.60 in.Hg)
Remarks Fully automated report
System requires maintenance
Special weather observation
Automated weather observing station with precipitation discriminator
Flight conditions Instrument Meteorological Conditions
Raw dataSPECI NZCM 231529Z AUTO 09013KT 4000 HZ BKN021 OVC034 M19/M23 A2863 RMK AO2 SNB1506E1529 SLP700 T11921234 $
An error has occurred. This application may no longer respond until reloaded. Reload 🗙